Time;durP1;ratioP1;P1;durP2;ratioP2;P2;SDS_P1;SDS_P2;PMS_P1;PMS_P2;Temp;Humidity;BMP_temperature;BMP_pressure;BME280_temperature;BME280_humidity;BME280_pressure;Samples;Min_cycle;Max_cycle;Signal;HPM_P1;HPM_P2
2023/12/24 00:00:20;;;;;;;0.10;0.10;;;10.50;99.90;;;;;;5041509;28;20041;-80
2023/12/24 00:02:46;;;;;;;0.10;0.10;;;10.50;99.90;;;;;;5045034;28;20033;-76
2023/12/24 00:05:13;;;;;;;0.10;0.10;;;10.50;1.00;;;;;;5018455;28;20662;-80
2023/12/24 00:07:39;;;;;;;0.15;0.15;;;10.40;1.00;;;;;;5045565;28;20041;-77
2023/12/24 00:10:06;;;;;;;0.10;0.10;;;10.40;1.00;;;;;;5043159;28;20484;-78
2023/12/24 00:12:32;;;;;;;0.10;0.10;;;10.30;1.00;;;;;;5030753;28;20406;-77
2023/12/24 00:15:00;;;;;;;0.35;0.25;;;10.30;1.00;;;;;;5040179;28;20046;-77
2023/12/24 00:17:26;;;;;;;0.55;0.45;;;10.30;1.00;;;;;;5043553;28;20041;-77
2023/12/24 00:19:52;;;;;;;0.10;0.10;;;10.30;1.00;;;;;;5043239;28;20378;-77
2023/12/24 00:22:18;;;;;;;0.63;0.63;;;10.30;1.00;;;;;;5032460;28;20063;-79
2023/12/24 00:24:45;;;;;;;0.10;0.10;;;10.20;1.00;;;;;;5060644;28;20039;-79
2023/12/24 00:27:11;;;;;;;0.20;0.20;;;10.30;1.00;;;;;;5056698;28;20045;-77
2023/12/24 00:29:37;;;;;;;0.10;0.10;;;10.30;1.00;;;;;;5043200;28;20047;-78
2023/12/24 00:32:03;;;;;;;0.40;0.40;;;10.30;1.00;;;;;;5042214;28;20052;-78
2023/12/24 00:34:30;;;;;;;0.10;0.10;;;10.40;1.00;;;;;;5021274;28;20050;-78
2023/12/24 00:36:56;;;;;;;0.10;0.10;;;10.40;99.90;;;;;;5045074;28;20041;-77
2023/12/24 00:39:22;;;;;;;0.13;0.13;;;10.40;1.00;;;;;;5040510;28;20502;-77
2023/12/24 00:41:48;;;;;;;0.10;0.10;;;10.30;1.00;;;;;;5042333;28;20032;-76
2023/12/24 00:44:15;;;;;;;0.13;0.13;;;10.40;1.00;;;;;;5041929;28;20051;-76
2023/12/24 00:46:41;;;;;;;0.40;0.40;;;10.40;1.00;;;;;;5042901;28;20033;-76
2023/12/24 00:49:07;;;;;;;0.15;0.15;;;10.40;1.00;;;;;;5029664;28;20036;-76
2023/12/24 00:51:33;;;;;;;0.57;0.20;;;10.40;1.00;;;;;;5041618;28;20407;-77
2023/12/24 00:54:01;;;;;;;0.15;0.15;;;10.30;1.00;;;;;;5024686;28;20049;-78
2023/12/24 00:56:27;;;;;;;2.80;0.45;;;10.30;1.00;;;;;;5030619;28;20041;-83
2023/12/24 00:58:54;;;;;;;0.17;0.17;;;10.30;1.00;;;;;;5056062;28;20044;-81
2023/12/24 01:01:20;;;;;;;0.10;0.10;;;10.30;1.00;;;;;;5053231;28;20037;-78
2023/12/24 01:03:46;;;;;;;0.10;0.10;;;10.30;1.00;;;;;;5042919;28;20040;-76
2023/12/24 01:06:13;;;;;;;0.70;0.30;;;10.30;1.00;;;;;;5042973;28;20486;-76
2023/12/24 01:08:39;;;;;;;0.30;0.30;;;10.40;99.90;;;;;;5031619;28;20041;-76
2023/12/24 01:11:06;;;;;;;2.05;0.63;;;10.30;99.90;;;;;;5056155;28;20060;-79
2023/12/24 01:13:32;;;;;;;0.10;0.10;;;10.40;99.90;;;;;;5043445;28;20033;-79
2023/12/24 01:16:00;;;;;;;0.35;0.35;;;10.40;99.90;;;;;;5047818;28;20025;-78
2023/12/24 01:18:27;;;;;;;0.10;0.10;;;10.40;99.90;;;;;;5031155;28;20041;-78
2023/12/24 01:20:53;;;;;;;4.10;0.30;;;10.30;99.90;;;;;;5020001;28;20040;-78
2023/12/24 01:23:19;;;;;;;0.10;0.10;;;10.30;99.90;;;;;;5054544;28;20045;-76
2023/12/24 01:25:45;;;;;;;0.10;0.10;;;10.30;99.90;;;;;;5041023;28;20034;-76
2023/12/24 01:28:11;;;;;;;0.20;0.20;;;10.30;99.90;;;;;;5031075;28;20398;-75
2023/12/24 01:30:38;;;;;;;0.20;0.20;;;10.30;99.90;;;;;;5049499;28;20044;-75
2023/12/24 01:33:04;;;;;;;0.10;0.10;;;10.30;99.90;;;;;;5043297;28;20041;-76
2023/12/24 01:35:31;;;;;;;2.50;0.90;;;10.30;1.00;;;;;;5041441;28;20081;-75
2023/12/24 01:37:57;;;;;;;0.10;0.10;;;10.20;1.00;;;;;;5041541;28;20045;-75
2023/12/24 01:40:24;;;;;;;0.73;0.73;;;10.20;1.00;;;;;;5041425;28;20363;-75
2023/12/24 01:42:51;;;;;;;0.20;0.20;;;10.20;1.00;;;;;;5040677;28;20025;-74
2023/12/24 01:45:17;;;;;;;0.10;0.10;;;10.20;1.00;;;;;;5024370;28;20042;-75
2023/12/24 01:47:44;;;;;;;0.13;0.13;;;10.10;1.00;;;;;;5043759;28;20037;-75
2023/12/24 01:50:10;;;;;;;0.10;0.10;;;10.20;1.00;;;;;;5045293;28;20351;-76
2023/12/24 01:52:37;;;;;;;1.30;0.43;;;10.20;1.00;;;;;;5022158;28;20041;-75
2023/12/24 01:55:05;;;;;;;0.10;0.10;;;10.20;1.00;;;;;;5037071;28;20036;-75
2023/12/24 01:57:32;;;;;;;0.47;0.47;;;10.30;1.00;;;;;;5030866;28;20051;-75
2023/12/24 01:59:59;;;;;;;0.10;0.10;;;10.20;1.00;;;;;;5030499;28;20354;-76
2023/12/24 02:02:27;;;;;;;0.25;0.25;;;10.20;1.00;;;;;;5029533;28;20390;-75
2023/12/24 02:04:53;;;;;;;0.17;0.15;;;10.20;1.00;;;;;;5020405;28;20100;-75
2023/12/24 02:07:23;;;;;;;0.20;0.20;;;10.20;1.00;;;;;;5026468;28;20041;-76
2023/12/24 02:09:49;;;;;;;0.10;0.10;;;10.30;99.90;;;;;;5014113;28;20466;-75
2023/12/24 02:12:15;;;;;;;0.40;0.40;;;10.30;99.90;;;;;;5044137;28;20028;-76
2023/12/24 02:14:42;;;;;;;0.30;0.30;;;10.30;1.00;;;;;;5040781;28;20041;-75
2023/12/24 02:17:09;;;;;;;0.40;0.40;;;10.20;1.00;;;;;;5040665;28;20053;-75
2023/12/24 02:19:36;;;;;;;1.20;0.47;;;10.20;1.00;;;;;;5044050;28;20037;-76
2023/12/24 02:22:02;;;;;;;0.10;0.10;;;10.20;1.00;;;;;;5028581;28;20046;-77
2023/12/24 02:24:28;;;;;;;0.43;0.43;;;10.10;1.00;;;;;;5022711;28;20045;-75
2023/12/24 02:27:16;;;;;;;0.10;0.10;;;10.10;1.00;;;;;;5038475;28;20045;-79
2023/12/24 02:29:45;;;;;;;0.10;0.10;;;10.10;1.00;;;;;;5041362;28;20039;-75
2023/12/24 02:32:17;;;;;;;0.10;0.10;;;10.10;1.00;;;;;;5025712;28;20044;-77
2023/12/24 02:34:45;;;;;;;0.10;0.10;;;10.20;1.00;;;;;;5049039;28;20469;-77
2023/12/24 02:37:12;;;;;;;0.10;0.10;;;10.20;1.00;;;;;;5028636;28;20033;-77
2023/12/24 02:39:39;;;;;;;0.10;0.10;;;10.10;1.00;;;;;;5033991;28;20474;-77
2023/12/24 02:42:06;;;;;;;0.10;0.10;;;10.10;1.00;;;;;;5046963;28;20478;-77
2023/12/24 02:44:36;;;;;;;0.10;0.10;;;10.10;1.00;;;;;;5022658;28;20470;-77
2023/12/24 02:47:02;;;;;;;0.10;0.10;;;10.10;1.00;;;;;;5044723;28;20052;-77
2023/12/24 02:49:28;;;;;;;0.55;0.40;;;10.10;1.00;;;;;;5044350;28;20044;-78
2023/12/24 02:51:54;;;;;;;0.63;0.63;;;10.10;1.00;;;;;;5045511;28;20033;-78
2023/12/24 02:54:21;;;;;;;0.40;0.40;;;10.00;1.00;;;;;;5022669;28;20049;-77
2023/12/24 02:56:47;;;;;;;0.10;0.10;;;10.00;1.00;;;;;;5042886;28;20041;-75
2023/12/24 02:59:13;;;;;;;0.10;0.10;;;9.90;1.00;;;;;;5045401;28;20037;-77
2023/12/24 03:01:40;;;;;;;0.10;0.10;;;9.90;1.00;;;;;;5039947;28;20037;-76
2023/12/24 03:04:06;;;;;;;0.10;0.10;;;9.90;1.00;;;;;;5024158;28;20060;-77
2023/12/24 03:06:32;;;;;;;0.10;0.10;;;9.90;1.00;;;;;;5027429;28;20029;-75
2023/12/24 03:08:58;;;;;;;0.10;0.10;;;9.80;1.00;;;;;;5023701;28;20045;-77
2023/12/24 03:11:26;;;;;;;0.20;0.20;;;9.90;1.00;;;;;;5042502;28;20033;-77
2023/12/24 03:13:52;;;;;;;0.10;0.10;;;9.80;1.00;;;;;;5045565;28;20041;-76
2023/12/24 03:16:18;;;;;;;0.10;0.10;;;9.90;1.00;;;;;;5059551;28;20048;-76
2023/12/24 03:18:45;;;;;;;0.13;0.13;;;9.80;1.00;;;;;;5057807;28;20144;-78
2023/12/24 03:21:11;;;;;;;0.10;0.10;;;9.90;1.00;;;;;;5047808;28;20402;-79
2023/12/24 03:23:37;;;;;;;0.57;0.45;;;9.80;1.00;;;;;;5044859;28;20025;-79
2023/12/24 03:26:03;;;;;;;0.30;0.30;;;9.90;1.00;;;;;;5025954;28;20033;-80
2023/12/24 03:28:31;;;;;;;0.10;0.10;;;9.90;1.00;;;;;;5008190;28;20052;-79
2023/12/24 03:30:57;;;;;;;0.10;0.10;;;9.80;1.00;;;;;;5047560;28;20052;-79
2023/12/24 03:33:23;;;;;;;0.10;0.10;;;9.80;1.00;;;;;;5063049;28;20052;-79
2023/12/24 03:35:49;;;;;;;0.10;0.10;;;9.80;1.00;;;;;;5043265;28;20033;-77
2023/12/24 03:38:17;;;;;;;0.10;0.10;;;9.80;1.00;;;;;;5025666;28;20242;-78
2023/12/24 03:40:43;;;;;;;0.10;0.10;;;9.80;1.00;;;;;;5047740;28;20477;-78
2023/12/24 03:43:09;;;;;;;0.10;0.10;;;9.90;1.00;;;;;;5049810;28;20052;-75
2023/12/24 03:45:36;;;;;;;0.20;0.20;;;9.90;1.00;;;;;;5024110;28;20038;-77
2023/12/24 03:48:05;;;;;;;0.40;0.40;;;9.90;1.00;;;;;;5064067;28;20036;-79
2023/12/24 03:50:31;;;;;;;0.10;0.10;;;9.90;1.00;;;;;;5032034;28;20037;-80
2023/12/24 03:52:57;;;;;;;0.20;0.20;;;9.80;1.00;;;;;;5053144;28;20025;-78
2023/12/24 03:55:23;;;;;;;0.70;0.35;;;9.80;1.00;;;;;;5029702;28;20067;-76
2023/12/24 03:57:50;;;;;;;0.20;0.20;;;9.90;1.00;;;;;;5044422;28;20047;-75
2023/12/24 04:00:16;;;;;;;4.75;0.63;;;9.90;1.00;;;;;;5032661;28;20153;-74
2023/12/24 04:02:42;;;;;;;0.30;0.30;;;9.80;1.00;;;;;;5040718;28;20041;-75
2023/12/24 04:05:08;;;;;;;0.10;0.10;;;9.90;1.00;;;;;;5038723;28;20036;-76
2023/12/24 04:07:36;;;;;;;0.10;0.10;;;9.90;1.00;;;;;;5042993;28;20033;-76
2023/12/24 04:10:02;;;;;;;0.20;0.20;;;9.90;1.00;;;;;;5043127;28;20020;-75
2023/12/24 04:12:29;;;;;;;0.25;0.25;;;9.90;1.00;;;;;;5028773;28;20045;-75
2023/12/24 04:14:55;;;;;;;0.10;0.10;;;9.90;1.00;;;;;;5047467;28;20378;-79
2023/12/24 04:17:21;;;;;;;0.10;0.10;;;9.90;1.00;;;;;;5031420;28;20390;-75
2023/12/24 04:19:47;;;;;;;0.10;0.10;;;9.90;1.00;;;;;;5027573;28;20041;-75
2023/12/24 04:22:13;;;;;;;0.10;0.10;;;9.90;1.00;;;;;;5052552;28;20041;-76
2023/12/24 04:24:40;;;;;;;0.20;0.20;;;9.80;1.00;;;;;;5058599;28;20056;-75
2023/12/24 04:27:06;;;;;;;0.10;0.10;;;9.80;1.00;;;;;;5040805;28;20041;-75
2023/12/24 04:29:32;;;;;;;0.10;0.10;;;9.90;1.00;;;;;;5030933;28;20351;-77
2023/12/24 04:31:58;;;;;;;0.10;0.10;;;9.90;1.00;;;;;;5030013;28;20049;-76
2023/12/24 04:34:25;;;;;;;0.10;0.10;;;9.90;1.00;;;;;;5020795;28;20045;-75
2023/12/24 04:36:52;;;;;;;0.10;0.10;;;9.90;1.00;;;;;;5039101;28;20033;-76
2023/12/24 04:39:19;;;;;;;0.95;0.40;;;9.90;1.00;;;;;;5046158;28;20052;-77
2023/12/24 04:41:45;;;;;;;0.08;0.08;;;9.90;1.00;;;;;;5060331;28;20033;-77
2023/12/24 04:44:11;;;;;;;0.20;0.20;;;9.90;1.00;;;;;;5015950;28;20052;-76
2023/12/24 04:46:43;;;;;;;0.10;0.10;;;9.80;1.00;;;;;;5022564;28;20045;-76
2023/12/24 04:49:09;;;;;;;1.45;1.08;;;9.90;1.00;;;;;;5057500;28;20056;-76
2023/12/24 04:51:35;;;;;;;0.10;0.10;;;9.80;1.00;;;;;;5058274;28;20470;-77
2023/12/24 04:54:03;;;;;;;0.20;0.20;;;9.70;1.00;;;;;;5021607;28;20052;-77
2023/12/24 04:56:31;;;;;;;0.20;0.20;;;9.70;1.00;;;;;;5020679;28;20045;-76
2023/12/24 04:58:59;;;;;;;0.10;0.10;;;9.80;1.00;;;;;;5031487;28;20362;-76
2023/12/24 05:01:26;;;;;;;0.10;0.10;;;9.80;1.00;;;;;;5025609;28;20752;-76
2023/12/24 05:03:52;;;;;;;0.20;0.20;;;9.80;1.00;;;;;;5043216;28;20045;-76
2023/12/24 05:06:19;;;;;;;0.30;0.28;;;9.80;1.00;;;;;;5051791;28;20044;-76
2023/12/24 05:08:45;;;;;;;0.10;0.10;;;9.80;1.00;;;;;;5043016;28;20033;-76
2023/12/24 05:11:11;;;;;;;0.10;0.10;;;9.80;1.00;;;;;;5032259;28;20430;-74
2023/12/24 05:13:37;;;;;;;0.10;0.10;;;9.80;1.00;;;;;;5043108;28;20051;-75
2023/12/24 05:16:05;;;;;;;0.10;0.10;;;9.90;1.00;;;;;;5034708;28;20044;-76
2023/12/24 05:18:35;;;;;;;0.82;0.40;;;9.80;1.00;;;;;;5039829;28;20056;-75
2023/12/24 05:21:01;;;;;;;0.20;0.20;;;9.80;1.00;;;;;;5026091;28;20482;-74
2023/12/24 05:23:27;;;;;;;0.00;0.00;;;9.80;1.00;;;;;;5044410;28;20042;-78
2023/12/24 05:25:54;;;;;;;0.10;0.10;;;9.80;1.00;;;;;;5036798;28;20045;-76
2023/12/24 05:28:20;;;;;;;0.10;0.10;;;9.80;1.00;;;;;;5057942;28;20049;-77
2023/12/24 05:30:46;;;;;;;0.30;0.30;;;9.80;1.00;;;;;;5045601;28;20044;-74
2023/12/24 05:33:13;;;;;;;0.10;0.10;;;9.80;1.00;;;;;;5040229;28;20041;-75
2023/12/24 05:35:39;;;;;;;0.32;0.32;;;9.70;1.00;;;;;;5041798;28;20037;-76
2023/12/24 05:38:05;;;;;;;0.50;0.30;;;9.80;1.00;;;;;;5042601;28;20382;-76
2023/12/24 05:40:31;;;;;;;0.00;0.00;;;9.70;1.00;;;;;;5041170;28;20034;-77
2023/12/24 05:42:58;;;;;;;0.10;0.10;;;9.70;1.00;;;;;;5030418;28;20045;-78
2023/12/24 05:45:24;;;;;;;0.10;0.10;;;9.70;1.00;;;;;;5040827;28;20442;-76
2023/12/24 05:47:50;;;;;;;0.20;0.20;;;9.80;1.00;;;;;;5040765;28;20124;-75
2023/12/24 05:50:16;;;;;;;0.10;0.10;;;9.70;1.00;;;;;;5037201;28;20335;-76
2023/12/24 05:52:42;;;;;;;0.10;0.10;;;9.80;1.00;;;;;;5042193;28;20592;-76
2023/12/24 05:55:10;;;;;;;0.10;0.10;;;9.80;1.00;;;;;;5029094;28;20250;-76
2023/12/24 05:57:36;;;;;;;0.10;0.10;;;9.80;1.00;;;;;;5041038;28;20037;-76
2023/12/24 06:00:03;;;;;;;0.10;0.10;;;9.70;1.00;;;;;;5039280;28;20044;-75
2023/12/24 06:02:38;;;;;;;0.10;0.10;;;9.80;1.00;;;;;;5043520;28;20509;-76
2023/12/24 06:05:05;;;;;;;0.10;0.10;;;9.70;1.00;;;;;;5040125;28;20041;-76
2023/12/24 06:07:31;;;;;;;0.13;0.13;;;9.70;3.60;;;;;;5047880;28;20489;-74
2023/12/24 06:09:57;;;;;;;0.10;0.10;;;9.70;1.00;;;;;;5046235;28;20129;-80
2023/12/24 06:12:23;;;;;;;0.10;0.10;;;9.70;1.00;;;;;;5044971;28;20029;-77
2023/12/24 06:14:49;;;;;;;0.10;0.10;;;9.70;4.90;;;;;;5042304;28;20128;-75
2023/12/24 06:17:16;;;;;;;0.10;0.10;;;9.70;8.40;;;;;;5033226;28;20029;-76
2023/12/24 06:19:43;;;;;;;0.10;0.10;;;9.70;12.40;;;;;;5041585;28;20033;-75
2023/12/24 06:22:09;;;;;;;0.10;0.10;;;9.80;4.80;;;;;;5032449;28;20064;-75
2023/12/24 06:24:35;;;;;;;0.20;0.20;;;9.80;1.50;;;;;;5045484;28;20033;-77
2023/12/24 06:27:01;;;;;;;0.10;0.10;;;9.80;1.00;;;;;;5047865;28;20390;-74
2023/12/24 06:29:27;;;;;;;0.13;0.13;;;9.80;2.90;;;;;;5057702;28;20037;-75
2023/12/24 06:31:57;;;;;;;0.57;0.20;;;9.80;2.20;;;;;;5031489;28;20471;-75
2023/12/24 06:34:23;;;;;;;0.10;0.10;;;9.80;11.30;;;;;;5045780;28;20128;-75
2023/12/24 06:36:49;;;;;;;0.40;0.40;;;9.80;27.70;;;;;;5041029;28;20044;-75
2023/12/24 06:39:15;;;;;;;0.20;0.20;;;9.80;58.50;;;;;;5045886;28;20124;-75
2023/12/24 06:41:41;;;;;;;0.10;0.10;;;9.70;95.60;;;;;;5043739;28;20386;-75
2023/12/24 06:44:07;;;;;;;0.10;0.10;;;9.70;99.90;;;;;;5046929;28;20462;-76
2023/12/24 06:46:34;;;;;;;0.10;0.10;;;9.70;99.90;;;;;;5049807;28;20048;-75
2023/12/24 06:49:00;;;;;;;0.10;0.10;;;9.70;99.90;;;;;;5046697;28;20037;-75
2023/12/24 06:51:26;;;;;;;0.63;0.63;;;9.60;99.90;;;;;;5044814;28;20463;-76
2023/12/24 06:53:52;;;;;;;1.48;1.33;;;9.50;99.90;;;;;;5038945;28;20033;-75
2023/12/24 06:56:18;;;;;;;1.42;1.33;;;9.60;99.90;;;;;;5042457;28;20285;-76
2023/12/24 06:58:44;;;;;;;0.10;0.10;;;9.60;99.90;;;;;;5047208;28;20048;-76
2023/12/24 07:01:10;;;;;;;1.40;0.60;;;9.50;99.90;;;;;;5044178;28;20029;-77
2023/12/24 07:03:37;;;;;;;0.40;0.40;;;9.50;99.90;;;;;;5047179;28;20037;-77
2023/12/24 07:06:03;;;;;;;2.47;0.40;;;9.50;99.90;;;;;;5040004;28;20037;-77
2023/12/24 07:08:31;;;;;;;3.00;2.13;;;9.40;99.90;;;;;;5045403;28;20064;-77
2023/12/24 07:10:58;;;;;;;6.82;2.83;;;9.40;99.90;;;;;;5026432;28;20042;-81
2023/12/24 07:13:24;;;;;;;0.30;0.30;;;9.40;99.90;;;;;;5045182;28;20077;-77
2023/12/24 07:15:52;;;;;;;1.42;1.33;;;9.40;99.90;;;;;;5043107;28;20033;-77
2023/12/24 07:18:18;;;;;;;3.25;0.88;;;9.40;99.90;;;;;;5022721;28;20052;-77
2023/12/24 07:20:44;;;;;;;0.20;0.20;;;9.40;99.90;;;;;;5044864;28;20033;-77
2023/12/24 07:23:10;;;;;;;2.38;1.50;;;9.50;99.90;;;;;;5041446;28;20359;-77
2023/12/24 07:25:36;;;;;;;0.52;0.52;;;9.50;99.90;;;;;;5038400;28;20387;-77
2023/12/24 07:28:03;;;;;;;1.02;0.55;;;9.40;99.90;;;;;;5024007;28;20033;-76
2023/12/24 07:30:29;;;;;;;3.72;1.63;;;9.40;99.90;;;;;;5044882;28;20033;-77
2023/12/24 07:32:55;;;;;;;0.50;0.50;;;9.40;99.90;;;;;;5052302;28;20036;-76
2023/12/24 07:35:21;;;;;;;0.20;0.20;;;9.40;99.90;;;;;;5025396;28;20052;-76
2023/12/24 07:37:48;;;;;;;0.10;0.10;;;9.40;99.90;;;;;;5037810;28;20028;-76
2023/12/24 07:40:14;;;;;;;0.20;0.20;;;9.50;99.90;;;;;;5045272;28;20056;-76
2023/12/24 07:42:40;;;;;;;0.25;0.25;;;9.50;99.90;;;;;;5042859;28;20330;-76
2023/12/24 07:45:07;;;;;;;0.10;0.10;;;9.50;99.90;;;;;;5043513;28;20033;-76
2023/12/24 07:47:33;;;;;;;0.10;0.10;;;9.40;99.90;;;;;;5044746;28;20982;-76
2023/12/24 07:49:59;;;;;;;0.10;0.10;;;9.40;99.90;;;;;;5041484;28;20374;-76
2023/12/24 07:52:25;;;;;;;0.10;0.10;;;9.40;99.90;;;;;;5042495;28;20044;-76
2023/12/24 07:54:51;;;;;;;0.10;0.10;;;9.40;99.90;;;;;;5052529;28;20432;-75
2023/12/24 07:57:18;;;;;;;0.10;0.10;;;9.30;99.90;;;;;;5052607;28;20461;-75
2023/12/24 07:59:44;;;;;;;0.65;0.65;;;9.30;99.90;;;;;;5051434;28;20037;-76
2023/12/24 08:02:10;;;;;;;0.20;0.20;;;9.40;99.90;;;;;;5041483;28;20036;-74
2023/12/24 08:04:36;;;;;;;0.45;0.45;;;9.30;99.90;;;;;;5044900;28;20037;-76
2023/12/24 08:07:02;;;;;;;0.30;0.30;;;9.40;99.90;;;;;;5044055;28;20029;-76
2023/12/24 08:09:29;;;;;;;0.13;0.13;;;9.40;99.90;;;;;;5037458;28;20029;-76
2023/12/24 08:11:55;;;;;;;0.20;0.20;;;9.30;99.90;;;;;;5043587;28;20029;-76
2023/12/24 08:14:21;;;;;;;0.20;0.20;;;9.30;99.90;;;;;;5045976;28;20025;-76
2023/12/24 08:16:47;;;;;;;0.93;0.32;;;9.30;99.90;;;;;;5043329;28;20390;-76
2023/12/24 08:19:13;;;;;;;0.32;0.32;;;9.30;99.90;;;;;;5043159;28;20398;-76
2023/12/24 08:21:39;;;;;;;0.90;0.63;;;9.30;99.90;;;;;;5023465;28;20050;-77
2023/12/24 08:24:06;;;;;;;2.22;0.77;;;9.30;99.90;;;;;;5043536;28;20132;-76
2023/12/24 08:26:32;;;;;;;0.70;0.60;;;9.30;99.90;;;;;;5044688;28;20047;-76
2023/12/24 08:28:58;;;;;;;0.20;0.20;;;9.30;1.00;;;;;;5039122;28;20068;-79
2023/12/24 08:31:24;;;;;;;4.78;1.80;;;9.20;1.00;;;;;;5040000;28;20044;-76
2023/12/24 08:33:50;;;;;;;0.22;0.22;;;9.20;1.00;;;;;;5040689;28;20033;-76
2023/12/24 08:36:17;;;;;;;0.55;0.55;;;9.10;1.00;;;;;;5028126;28;20045;-78
2023/12/24 08:38:43;;;;;;;0.65;0.65;;;9.20;1.00;;;;;;5044125;28;20041;-77
2023/12/24 08:41:09;;;;;;;0.30;0.30;;;9.10;1.00;;;;;;5035904;28;20048;-77
2023/12/24 08:43:35;;;;;;;0.30;0.30;;;9.10;1.00;;;;;;5042415;28;20096;-79
2023/12/24 08:46:03;;;;;;;0.20;0.20;;;9.10;1.00;;;;;;5060588;28;20040;-78
2023/12/24 08:48:30;;;;;;;0.20;0.20;;;9.10;1.00;;;;;;5044833;28;20155;-81
2023/12/24 08:50:56;;;;;;;0.10;0.10;;;9.10;1.00;;;;;;5040295;28;20033;-77
2023/12/24 08:53:22;;;;;;;0.20;0.20;;;9.10;1.00;;;;;;5042331;28;20040;-78
2023/12/24 08:55:48;;;;;;;1.73;1.10;;;9.20;1.00;;;;;;5042169;28;20037;-77
2023/12/24 08:58:15;;;;;;;0.63;0.63;;;9.20;1.00;;;;;;5030617;28;20059;-76
2023/12/24 09:00:41;;;;;;;0.10;0.10;;;9.20;1.00;;;;;;5044822;28;20049;-79
2023/12/24 09:03:07;;;;;;;0.10;0.10;;;9.30;1.00;;;;;;5040190;28;20044;-77
2023/12/24 09:05:33;;;;;;;0.10;0.10;;;9.30;1.00;;;;;;5037609;28;20029;-77
2023/12/24 09:07:59;;;;;;;0.10;0.10;;;9.30;1.00;;;;;;5045819;28;20033;-75
2023/12/24 09:10:25;;;;;;;0.10;0.10;;;9.40;1.00;;;;;;5044001;28;20047;-79
2023/12/24 09:12:51;;;;;;;0.10;0.10;;;9.40;1.00;;;;;;5049552;28;20040;-75
2023/12/24 09:15:18;;;;;;;0.10;0.10;;;9.40;1.00;;;;;;5058896;28;20033;-75
2023/12/24 09:17:44;;;;;;;0.30;0.30;;;9.40;1.00;;;;;;5049834;28;20029;-78
2023/12/24 09:20:10;;;;;;;0.10;0.10;;;9.40;1.00;;;;;;5047494;28;20350;-76
2023/12/24 09:22:36;;;;;;;0.10;0.10;;;9.50;1.00;;;;;;5031396;28;20052;-77
2023/12/24 09:25:04;;;;;;;0.10;0.10;;;9.50;1.00;;;;;;5047453;28;20028;-78
2023/12/24 09:27:30;;;;;;;0.20;0.20;;;9.50;1.00;;;;;;5050792;28;20033;-80
2023/12/24 09:29:56;;;;;;;0.60;0.60;;;9.50;1.00;;;;;;5031683;28;20040;-79
2023/12/24 09:32:22;;;;;;;0.10;0.10;;;9.50;1.00;;;;;;5044883;28;20026;-79
2023/12/24 09:34:49;;;;;;;0.32;0.30;;;9.60;1.00;;;;;;5044470;28;20029;-78
2023/12/24 09:37:15;;;;;;;0.17;0.17;;;9.60;1.00;;;;;;5049169;28;20041;-77
2023/12/24 09:39:41;;;;;;;0.65;0.45;;;9.70;1.00;;;;;;5048375;28;20139;-78
2023/12/24 09:42:07;;;;;;;0.20;0.20;;;9.70;1.00;;;;;;5043183;28;20021;-77
2023/12/24 09:44:34;;;;;;;0.17;0.17;;;9.70;99.90;;;;;;5039989;28;20033;-77
2023/12/24 09:47:01;;;;;;;0.10;0.10;;;9.80;1.00;;;;;;5041177;28;20041;-78
2023/12/24 09:49:28;;;;;;;0.32;0.32;;;9.80;1.00;;;;;;5031342;28;20040;-78
2023/12/24 09:51:56;;;;;;;0.10;0.10;;;9.80;1.00;;;;;;5042137;28;20029;-79
2023/12/24 09:54:23;;;;;;;0.20;0.20;;;9.70;1.00;;;;;;5045361;28;20036;-77
2023/12/24 09:56:49;;;;;;;0.10;0.10;;;9.70;1.00;;;;;;5039105;28;20021;-79
2023/12/24 09:59:15;;;;;;;0.20;0.20;;;9.70;1.00;;;;;;5027856;28;20049;-78
2023/12/24 10:01:44;;;;;;;0.10;0.10;;;9.60;1.00;;;;;;5042781;28;20139;-77
2023/12/24 10:04:12;;;;;;;0.10;0.10;;;9.60;1.00;;;;;;5047119;28;20033;-78
2023/12/24 10:06:55;;;;;;;0.10;0.10;;;9.60;1.00;;;;;;5046928;28;20047;-77
2023/12/24 10:09:24;;;;;;;0.10;0.10;;;9.60;1.00;;;;;;5045028;28;20594;-78
2023/12/24 10:12:06;;;;;;;0.25;0.22;;;9.60;1.00;;;;;;5040145;28;20037;-80
2023/12/24 10:14:33;;;;;;;0.10;0.10;;;9.50;1.00;;;;;;5038679;28;20034;-78
2023/12/24 10:17:00;;;;;;;0.20;0.13;;;9.60;1.00;;;;;;5035818;28;20033;-78
2023/12/24 10:19:27;;;;;;;1.27;0.68;;;9.60;1.00;;;;;;5040358;28;20051;-78
2023/12/24 10:22:00;;;;;;;0.13;0.13;;;9.50;1.00;;;;;;5039432;28;20048;-79
2023/12/24 10:24:31;;;;;;;0.10;0.10;;;9.50;1.00;;;;;;5040231;28;20474;-81
2023/12/24 10:27:05;;;;;;;0.20;0.20;;;9.50;1.00;;;;;;5040653;28;20033;-77
2023/12/24 10:29:33;;;;;;;0.10;0.10;;;9.60;1.00;;;;;;5044120;28;20155;-78
2023/12/24 10:31:59;;;;;;;0.10;0.10;;;9.60;1.00;;;;;;5045001;28;20033;-77
2023/12/24 10:34:26;;;;;;;0.10;0.10;;;9.70;1.00;;;;;;5037696;28;20064;-78
2023/12/24 10:36:52;;;;;;;2.50;1.17;;;9.70;1.00;;;;;;5040319;28;20040;-76
2023/12/24 10:39:26;;;;;;;0.17;0.17;;;9.80;1.00;;;;;;5032821;28;20045;-76
2023/12/24 10:41:54;;;;;;;0.10;0.10;;;9.90;99.90;;;;;;5047087;28;20033;-77
2023/12/24 10:44:21;;;;;;;0.10;0.10;;;10.10;99.90;;;;;;5030017;28;20037;-75
2023/12/24 10:46:47;;;;;;;0.10;0.10;;;10.20;99.90;;;;;;5038149;28;20402;-76
2023/12/24 10:49:13;;;;;;;0.10;0.10;;;10.30;99.90;;;;;;5037260;28;20044;-77
2023/12/24 10:51:40;;;;;;;0.10;0.10;;;10.30;99.90;;;;;;5041860;28;20246;-78
2023/12/24 10:54:09;;;;;;;0.10;0.10;;;10.30;99.90;;;;;;5046592;28;20040;-75
2023/12/24 10:56:56;;;;;;;0.10;0.10;;;10.40;99.90;;;;;;5041138;28;20033;-75
2023/12/24 10:59:34;;;;;;;0.10;0.10;;;10.40;99.90;;;;;;5037783;28;20344;-75
2023/12/24 11:02:00;;;;;;;0.10;0.10;;;10.40;99.90;;;;;;5035758;28;20037;-76
2023/12/24 11:04:45;;;;;;;0.10;0.10;;;10.40;99.90;;;;;;5048492;28;20033;-74
2023/12/24 11:07:31;;;;;;;0.65;0.60;;;10.40;99.90;;;;;;5045846;28;20036;-76
2023/12/24 11:09:59;;;;;;;0.20;0.17;;;10.40;99.90;;;;;;5029953;28;20042;-77
2023/12/24 11:12:33;;;;;;;0.60;0.60;;;10.40;99.90;;;;;;5036578;28;20029;-77
2023/12/24 11:15:00;;;;;;;1.40;0.93;;;10.40;99.90;;;;;;5044560;28;20033;-80
2023/12/24 11:17:36;;;;;;;0.10;0.10;;;10.40;99.90;;;;;;5041277;28;20399;-74
2023/12/24 11:20:20;;;;;;;0.10;0.10;;;10.40;99.90;;;;;;5038358;28;20055;-78
2023/12/24 11:23:05;;;;;;;0.10;0.10;;;10.40;99.90;;;;;;5040762;28;20049;-76
2023/12/24 11:25:44;;;;;;;0.25;0.25;;;10.50;99.90;;;;;;5042031;28;20117;-76
2023/12/24 11:28:36;;;;;;;0.10;0.10;;;10.50;99.90;;;;;;5044166;28;20040;-75
2023/12/24 11:31:06;;;;;;;0.10;0.10;;;10.50;99.90;;;;;;5037592;28;20037;-80
2023/12/24 11:33:46;;;;;;;0.10;0.10;;;10.50;99.90;;;;;;5040559;28;20029;-76
2023/12/24 11:36:14;;;;;;;0.10;0.10;;;10.50;99.90;;;;;;5043391;28;20484;-74
2023/12/24 11:38:41;;;;;;;0.10;0.10;;;10.50;99.90;;;;;;5033047;28;20049;-75
2023/12/24 11:41:14;;;;;;;0.10;0.10;;;10.50;99.90;;;;;;5031617;28;20056;-76
2023/12/24 11:43:51;;;;;;;0.20;0.20;;;10.50;99.90;;;;;;5046342;28;20037;-76
2023/12/24 11:46:17;;;;;;;0.22;0.20;;;10.50;99.90;;;;;;5038026;28;20033;-76
2023/12/24 11:48:43;;;;;;;0.10;0.10;;;10.50;99.90;;;;;;5051434;28;20028;-76
2023/12/24 11:51:11;;;;;;;0.13;0.13;;;10.50;99.90;;;;;;5034609;28;20068;-75
2023/12/24 11:53:39;;;;;;;0.10;0.10;;;10.50;99.90;;;;;;5044440;28;20040;-78
2023/12/24 11:56:07;;;;;;;0.10;0.10;;;10.50;99.90;;;;;;5048835;28;20037;-76
2023/12/24 11:58:33;;;;;;;0.10;0.10;;;10.50;99.90;;;;;;5043065;28;20470;-76
2023/12/24 12:01:02;;;;;;;0.10;0.10;;;10.50;99.90;;;;;;5040075;28;20482;-75
2023/12/24 12:03:31;;;;;;;0.10;0.10;;;10.50;99.90;;;;;;5036153;28;20041;-76
2023/12/24 12:05:58;;;;;;;0.20;0.20;;;10.50;99.90;;;;;;5025540;28;20063;-76
2023/12/24 12:08:30;;;;;;;0.10;0.10;;;10.50;99.90;;;;;;5038684;28;20264;-77
2023/12/24 12:10:57;;;;;;;0.13;0.13;;;10.60;99.90;;;;;;5041547;28;20045;-77
2023/12/24 12:13:24;;;;;;;0.10;0.10;;;10.60;99.90;;;;;;5038868;28;20033;-77
2023/12/24 12:15:50;;;;;;;0.10;0.10;;;10.60;99.90;;;;;;5025891;28;20033;-76
2023/12/24 12:18:17;;;;;;;0.10;0.10;;;10.60;99.90;;;;;;5021710;28;20040;-77
2023/12/24 12:20:45;;;;;;;0.10;0.10;;;10.60;99.90;;;;;;5031400;28;20080;-76
2023/12/24 12:23:13;;;;;;;0.20;0.20;;;10.70;99.90;;;;;;5041118;28;20049;-76
2023/12/24 12:25:39;;;;;;;0.00;0.00;;;10.70;99.90;;;;;;5041232;28;20414;-75
2023/12/24 12:28:06;;;;;;;0.10;0.10;;;10.70;99.90;;;;;;5026120;28;20410;-77
2023/12/24 12:30:32;;;;;;;0.10;0.10;;;10.70;99.90;;;;;;5035585;28;20045;-77
2023/12/24 12:32:59;;;;;;;0.10;0.10;;;10.60;99.90;;;;;;5024795;28;20041;-77
2023/12/24 12:35:25;;;;;;;0.10;0.10;;;10.60;99.90;;;;;;5054351;28;20037;-76
2023/12/24 12:37:51;;;;;;;0.10;0.10;;;10.60;99.90;;;;;;5042997;28;20036;-76
2023/12/24 12:40:18;;;;;;;0.10;0.10;;;10.70;99.90;;;;;;5043317;28;20045;-76
2023/12/24 12:42:44;;;;;;;0.10;0.10;;;10.70;99.90;;;;;;5026063;28;20057;-75
2023/12/24 12:45:11;;;;;;;0.10;0.10;;;10.70;99.90;;;;;;5038526;28;20040;-75
2023/12/24 12:47:37;;;;;;;0.10;0.10;;;10.70;99.90;;;;;;5034189;28;20033;-75
2023/12/24 12:50:04;;;;;;;0.10;0.10;;;10.70;99.90;;;;;;5040055;28;20041;-76
2023/12/24 12:52:31;;;;;;;0.52;0.30;;;10.60;99.90;;;;;;5040692;28;20045;-75
2023/12/24 12:55:02;;;;;;;0.52;0.47;;;10.70;99.90;;;;;;5040380;28;20033;-77
2023/12/24 12:57:33;;;;;;;2.17;0.75;;;10.70;99.90;;;;;;5016731;28;20485;-76
2023/12/24 13:00:08;;;;;;;0.25;0.25;;;10.70;99.90;;;;;;5040028;28;20041;-79